Time;durP1;ratioP1;P1;durP2;ratioP2;P2;SDS_P1;SDS_P2;PMS_P1;PMS_P2;Temp;Humidity;BMP_temperature;BMP_pressure;BME280_temperature;BME280_humidity;BME280_pressure;Samples;Min_cycle;Max_cycle;Signal;HPM_P1;HPM_P2
2023/12/31 00:02:07;;;;;;;7.85;4.55;;;10.30;99.90;;;;;;5112345;28;20035;-71
2023/12/31 00:04:33;;;;;;;7.75;4.03;;;10.30;99.90;;;;;;5112756;28;20032;-71
2023/12/31 00:06:58;;;;;;;8.07;4.03;;;10.30;99.90;;;;;;5112745;28;20027;-71
2023/12/31 00:09:24;;;;;;;6.25;3.97;;;10.30;99.90;;;;;;5112895;28;20028;-70
2023/12/31 00:11:49;;;;;;;7.50;3.70;;;10.20;99.90;;;;;;5111208;28;20023;-71
2023/12/31 00:14:15;;;;;;;6.43;3.80;;;10.30;99.90;;;;;;5110774;28;20023;-71
2023/12/31 00:16:40;;;;;;;6.30;4.03;;;10.20;99.90;;;;;;5112412;28;20023;-71
2023/12/31 00:19:06;;;;;;;7.30;3.78;;;10.20;99.90;;;;;;5111351;28;20106;-71
2023/12/31 00:21:31;;;;;;;6.30;3.85;;;10.30;99.90;;;;;;5112822;28;20024;-71
2023/12/31 00:23:57;;;;;;;6.10;3.67;;;10.30;99.90;;;;;;5112416;28;20024;-71
2023/12/31 00:26:23;;;;;;;5.50;3.55;;;10.30;99.90;;;;;;5097516;28;20396;-71
2023/12/31 00:28:48;;;;;;;5.97;3.60;;;10.30;99.90;;;;;;5091918;28;20473;-71
2023/12/31 00:31:14;;;;;;;9.70;3.80;;;10.40;99.90;;;;;;5091167;28;20042;-71
2023/12/31 00:33:39;;;;;;;6.32;3.42;;;10.40;99.90;;;;;;5092082;28;20039;-71
2023/12/31 00:36:05;;;;;;;5.20;3.20;;;10.40;99.90;;;;;;5091943;28;20477;-70
2023/12/31 00:38:30;;;;;;;6.30;3.25;;;10.40;99.90;;;;;;5092147;28;20020;-72
2023/12/31 00:40:56;;;;;;;5.20;3.53;;;10.50;99.90;;;;;;5092121;28;20048;-70
2023/12/31 00:43:21;;;;;;;7.28;3.30;;;10.50;99.90;;;;;;5092037;28;20093;-70
2023/12/31 00:45:47;;;;;;;6.45;3.20;;;10.50;99.90;;;;;;5098804;28;20680;-71
2023/12/31 00:48:13;;;;;;;4.60;3.03;;;10.50;99.90;;;;;;5101778;28;20058;-71
2023/12/31 00:50:38;;;;;;;3.58;2.75;;;10.50;99.90;;;;;;5095823;28;20024;-71
2023/12/31 00:53:04;;;;;;;5.70;3.30;;;10.50;99.90;;;;;;5095678;28;20032;-71
2023/12/31 00:55:29;;;;;;;8.20;3.40;;;10.50;99.90;;;;;;5095513;28;20024;-71
2023/12/31 00:57:55;;;;;;;6.88;3.63;;;10.50;99.90;;;;;;5093755;28;20060;-70
2023/12/31 01:00:20;;;;;;;8.10;3.50;;;10.50;99.90;;;;;;5095570;28;20032;-71
2023/12/31 01:02:46;;;;;;;6.45;3.33;;;10.50;99.90;;;;;;5095322;28;20080;-70
2023/12/31 01:05:11;;;;;;;5.68;3.13;;;10.50;99.90;;;;;;5094858;28;20509;-70
2023/12/31 01:07:37;;;;;;;6.40;3.33;;;10.50;99.90;;;;;;5092852;28;20043;-71
2023/12/31 01:10:03;;;;;;;6.55;3.00;;;10.50;99.90;;;;;;5095042;28;20564;-72
2023/12/31 01:12:28;;;;;;;5.97;2.97;;;10.50;99.90;;;;;;5094085;28;20036;-72
2023/12/31 01:14:54;;;;;;;5.03;3.10;;;10.50;99.90;;;;;;5094614;28;20461;-71
2023/12/31 01:17:19;;;;;;;8.50;3.45;;;10.50;99.90;;;;;;5093958;28;20389;-70
2023/12/31 01:19:45;;;;;;;3.70;3.05;;;10.50;99.90;;;;;;5094429;28;20028;-70
2023/12/31 01:22:11;;;;;;;5.93;2.90;;;10.50;99.90;;;;;;5094817;28;20111;-71
2023/12/31 01:24:36;;;;;;;5.00;2.75;;;10.50;99.90;;;;;;5094768;28;20035;-71
2023/12/31 01:27:02;;;;;;;5.10;3.25;;;10.50;99.90;;;;;;5110048;28;20057;-71
2023/12/31 01:29:28;;;;;;;5.32;2.95;;;10.50;99.90;;;;;;5111244;28;20052;-71
2023/12/31 01:31:53;;;;;;;6.97;3.05;;;10.50;99.90;;;;;;5114061;28;20418;-72
2023/12/31 01:34:19;;;;;;;5.45;3.33;;;10.40;99.90;;;;;;5113709;28;20028;-71
2023/12/31 01:36:44;;;;;;;4.65;2.72;;;10.50;99.90;;;;;;5108465;28;20118;-71
2023/12/31 01:39:10;;;;;;;5.18;2.30;;;10.40;99.90;;;;;;5094708;28;20347;-71
2023/12/31 01:41:35;;;;;;;2.83;2.10;;;10.40;99.90;;;;;;5094683;28;20028;-71
2023/12/31 01:44:03;;;;;;;3.90;2.53;;;10.30;99.90;;;;;;5093974;28;20024;-71
2023/12/31 01:46:30;;;;;;;3.38;2.50;;;10.40;99.90;;;;;;5093929;28;20032;-70
2023/12/31 01:49:00;;;;;;;3.63;2.30;;;10.30;99.90;;;;;;5093863;28;20031;-72
2023/12/31 01:51:28;;;;;;;4.05;2.10;;;10.40;99.90;;;;;;5113891;28;20380;-70
2023/12/31 01:53:58;;;;;;;4.43;2.30;;;10.40;99.90;;;;;;5114487;28;20110;-70
2023/12/31 01:56:24;;;;;;;3.83;2.22;;;10.40;99.90;;;;;;5114160;28;20778;-71
2023/12/31 01:58:50;;;;;;;4.38;2.50;;;10.40;99.90;;;;;;5114452;28;20019;-70
2023/12/31 02:01:23;;;;;;;5.47;2.70;;;10.40;99.90;;;;;;5114446;28;20162;-71
2023/12/31 02:03:50;;;;;;;4.68;2.25;;;10.40;99.90;;;;;;5112848;28;20473;-70
2023/12/31 02:06:15;;;;;;;3.45;2.10;;;10.40;99.90;;;;;;5117974;27;20377;-71
2023/12/31 02:08:41;;;;;;;6.07;2.40;;;10.30;99.90;;;;;;5111868;28;20046;-72
2023/12/31 02:11:08;;;;;;;6.85;2.75;;;10.30;99.90;;;;;;5113664;28;20578;-71
2023/12/31 02:13:34;;;;;;;4.50;2.20;;;10.30;99.90;;;;;;5103979;28;20027;-71
2023/12/31 02:15:59;;;;;;;6.75;2.50;;;10.40;99.90;;;;;;5113736;28;20381;-71
2023/12/31 02:18:25;;;;;;;3.17;2.20;;;10.40;99.90;;;;;;5112548;28;20026;-71
2023/12/31 02:20:51;;;;;;;4.20;2.00;;;10.40;99.90;;;;;;5097750;28;20035;-71
2023/12/31 02:23:16;;;;;;;7.07;2.50;;;10.40;99.90;;;;;;5106973;28;20110;-71
2023/12/31 02:25:47;;;;;;;5.07;2.30;;;10.40;99.90;;;;;;5109508;28;20046;-72
2023/12/31 02:28:13;;;;;;;3.95;2.22;;;10.40;99.90;;;;;;5113315;28;20461;-71
2023/12/31 02:30:38;;;;;;;4.90;2.45;;;10.40;99.90;;;;;;5113448;28;20045;-71
2023/12/31 02:33:04;;;;;;;4.03;2.30;;;10.40;99.90;;;;;;5112560;28;20075;-71
2023/12/31 02:35:29;;;;;;;5.65;2.40;;;10.40;99.90;;;;;;5113223;28;20027;-72
2023/12/31 02:37:55;;;;;;;8.23;2.67;;;10.40;99.90;;;;;;5097387;28;20023;-71
2023/12/31 02:40:20;;;;;;;7.88;2.42;;;10.40;99.90;;;;;;5101590;28;20351;-70
2023/12/31 02:42:46;;;;;;;4.45;2.10;;;10.40;99.90;;;;;;5111625;28;20404;-72
2023/12/31 02:45:12;;;;;;;6.10;2.30;;;10.40;99.90;;;;;;5076345;28;20032;-72
2023/12/31 02:47:37;;;;;;;3.95;2.20;;;10.30;99.90;;;;;;5074680;28;20035;-71
2023/12/31 02:50:04;;;;;;;4.25;2.10;;;10.30;99.90;;;;;;5074844;28;20028;-71
2023/12/31 02:52:30;;;;;;;5.82;2.45;;;10.20;99.90;;;;;;5092685;28;20082;-71
2023/12/31 02:54:55;;;;;;;4.60;1.80;;;10.20;99.90;;;;;;5092879;28;20469;-71
2023/12/31 02:57:22;;;;;;;2.72;1.92;;;10.20;99.90;;;;;;5092747;28;20042;-71
2023/12/31 02:59:47;;;;;;;5.60;2.22;;;10.10;99.90;;;;;;5092522;28;20067;-71
2023/12/31 03:02:13;;;;;;;5.43;2.40;;;10.10;99.90;;;;;;5112917;28;20059;-70
2023/12/31 03:04:40;;;;;;;3.15;2.20;;;10.10;99.90;;;;;;5110404;28;20026;-71
2023/12/31 03:07:06;;;;;;;3.88;2.30;;;10.10;99.90;;;;;;5112948;28;20091;-71
2023/12/31 03:09:31;;;;;;;3.38;2.33;;;10.10;99.90;;;;;;5102195;28;20032;-71
2023/12/31 03:11:57;;;;;;;4.10;2.05;;;10.10;99.90;;;;;;5092452;28;20381;-71
2023/12/31 03:14:22;;;;;;;3.35;2.10;;;10.10;99.90;;;;;;5092347;28;20062;-71
2023/12/31 03:16:48;;;;;;;4.63;2.20;;;10.10;99.90;;;;;;5092724;28;20098;-71
2023/12/31 03:19:15;;;;;;;4.05;2.13;;;10.10;99.90;;;;;;5092694;28;20032;-71
2023/12/31 03:21:41;;;;;;;7.00;3.20;;;10.10;99.90;;;;;;5092528;28;20465;-72
2023/12/31 03:24:10;;;;;;;3.95;2.28;;;10.10;99.90;;;;;;5092454;28;20028;-71
2023/12/31 03:26:36;;;;;;;5.10;2.30;;;10.10;99.90;;;;;;5090213;28;20067;-71
2023/12/31 03:29:02;;;;;;;7.32;2.10;;;10.10;99.90;;;;;;5096130;28;20071;-71
2023/12/31 03:31:27;;;;;;;3.95;2.13;;;10.10;99.90;;;;;;5086603;28;20021;-72
2023/12/31 03:33:53;;;;;;;4.20;2.30;;;10.10;99.90;;;;;;5092342;28;20032;-71
2023/12/31 03:36:21;;;;;;;3.15;2.28;;;10.10;99.90;;;;;;5092280;28;20427;-72
2023/12/31 03:38:48;;;;;;;5.35;2.13;;;10.00;99.90;;;;;;5097550;28;20558;-71
2023/12/31 03:41:14;;;;;;;5.93;2.78;;;10.00;99.90;;;;;;5092159;28;20415;-72
2023/12/31 03:43:39;;;;;;;3.45;2.42;;;9.90;99.90;;;;;;5092535;28;20024;-72
2023/12/31 03:46:05;;;;;;;3.70;2.58;;;9.90;99.90;;;;;;5092392;28;20384;-71
2023/12/31 03:48:31;;;;;;;5.70;2.53;;;9.90;99.90;;;;;;5091054;28;20388;-72
2023/12/31 03:50:57;;;;;;;4.97;2.33;;;9.90;99.90;;;;;;5099979;28;20080;-72
2023/12/31 03:53:23;;;;;;;2.75;2.08;;;9.80;99.90;;;;;;5112388;28;20023;-72
2023/12/31 03:55:48;;;;;;;3.58;2.40;;;9.80;99.90;;;;;;5079532;28;20093;-72
2023/12/31 03:58:14;;;;;;;3.63;2.50;;;9.80;99.90;;;;;;5092288;28;20066;-72
2023/12/31 04:00:39;;;;;;;4.47;2.55;;;9.80;99.90;;;;;;5092222;28;20031;-72
2023/12/31 04:03:05;;;;;;;3.75;2.33;;;9.80;99.90;;;;;;5091969;28;20052;-71
2023/12/31 04:05:31;;;;;;;7.05;2.30;;;9.80;99.90;;;;;;5091892;28;20024;-72
2023/12/31 04:07:56;;;;;;;3.92;2.60;;;9.80;99.90;;;;;;5095134;28;20044;-71
2023/12/31 04:10:22;;;;;;;3.58;2.35;;;9.70;99.90;;;;;;5092873;28;20036;-71
2023/12/31 04:12:47;;;;;;;4.43;2.55;;;9.70;99.90;;;;;;5112174;28;20031;-72
2023/12/31 04:15:13;;;;;;;4.88;2.58;;;9.70;99.90;;;;;;5112315;28;20610;-72
2023/12/31 04:17:39;;;;;;;3.63;2.65;;;9.80;99.90;;;;;;5112352;28;20111;-71
2023/12/31 04:20:05;;;;;;;5.90;2.80;;;9.80;99.90;;;;;;5092498;28;20472;-72
2023/12/31 04:22:31;;;;;;;3.63;2.60;;;9.80;99.90;;;;;;5095641;28;20039;-71
2023/12/31 04:24:57;;;;;;;4.55;2.50;;;9.70;99.90;;;;;;5095774;28;20020;-71
2023/12/31 04:27:22;;;;;;;3.22;2.58;;;9.70;99.90;;;;;;5095864;28;20039;-71
2023/12/31 04:29:48;;;;;;;3.40;2.60;;;9.70;99.90;;;;;;5110432;28;20032;-71
2023/12/31 04:32:14;;;;;;;5.78;2.38;;;9.70;99.90;;;;;;5114564;28;20035;-71
2023/12/31 04:34:39;;;;;;;5.00;2.42;;;9.70;99.90;;;;;;5114222;28;20057;-71
2023/12/31 04:37:05;;;;;;;5.40;2.58;;;9.70;99.90;;;;;;5111312;28;20384;-71
2023/12/31 04:39:31;;;;;;;5.32;2.50;;;9.80;99.90;;;;;;5115380;28;20035;-72
2023/12/31 04:41:56;;;;;;;5.53;2.30;;;9.80;99.90;;;;;;5115059;28;20114;-71
2023/12/31 04:44:22;;;;;;;3.92;2.80;;;9.80;99.90;;;;;;5115385;28;20035;-71
2023/12/31 04:46:47;;;;;;;5.90;2.80;;;9.80;99.90;;;;;;5112904;28;20028;-70
2023/12/31 04:49:16;;;;;;;3.90;2.50;;;9.90;99.90;;;;;;5115275;28;20031;-71
2023/12/31 04:51:42;;;;;;;5.55;2.30;;;9.90;99.90;;;;;;5114092;28;20030;-71
2023/12/31 04:54:08;;;;;;;4.90;2.38;;;9.80;99.90;;;;;;5115354;28;20015;-71
2023/12/31 04:56:34;;;;;;;5.25;2.55;;;9.80;99.90;;;;;;5115250;28;20020;-71
2023/12/31 04:59:00;;;;;;;6.68;2.50;;;9.80;99.90;;;;;;5114076;28;20049;-71
2023/12/31 05:01:31;;;;;;;3.90;2.47;;;9.80;99.90;;;;;;5115287;28;20032;-71
2023/12/31 05:03:58;;;;;;;3.80;2.40;;;9.80;99.90;;;;;;5113851;28;20048;-71
2023/12/31 05:06:24;;;;;;;5.78;2.40;;;9.80;99.90;;;;;;5115297;28;20031;-70
2023/12/31 05:08:49;;;;;;;3.47;2.47;;;9.80;99.90;;;;;;5115454;28;20131;-71
2023/12/31 05:11:15;;;;;;;8.07;2.67;;;9.90;99.90;;;;;;5109503;28;20440;-70
2023/12/31 05:13:41;;;;;;;4.28;2.60;;;9.80;99.90;;;;;;5095203;28;20024;-70
2023/12/31 05:16:10;;;;;;;4.90;2.30;;;9.90;99.90;;;;;;5095261;28;20081;-70
2023/12/31 05:18:36;;;;;;;3.80;2.55;;;9.90;99.90;;;;;;5094771;28;20028;-71
2023/12/31 05:21:02;;;;;;;4.82;2.38;;;9.90;99.90;;;;;;5095118;28;20031;-71
2023/12/31 05:23:30;;;;;;;4.78;2.38;;;9.90;99.90;;;;;;5094614;28;20028;-71
2023/12/31 05:25:55;;;;;;;3.55;2.30;;;9.90;99.90;;;;;;5094965;28;20024;-70
2023/12/31 05:28:21;;;;;;;5.07;2.50;;;9.90;99.90;;;;;;5093962;28;20097;-71
2023/12/31 05:30:47;;;;;;;3.28;2.53;;;9.90;99.90;;;;;;5094538;28;20024;-70
2023/12/31 05:33:12;;;;;;;4.95;2.50;;;9.90;99.90;;;;;;5094633;28;20114;-71
2023/12/31 05:35:38;;;;;;;5.47;2.55;;;9.90;99.90;;;;;;5105869;28;20106;-71
2023/12/31 05:38:04;;;;;;;3.40;2.50;;;9.90;99.90;;;;;;5114982;28;20038;-71
2023/12/31 05:40:29;;;;;;;2.90;2.40;;;9.90;99.90;;;;;;5114853;28;20480;-71
2023/12/31 05:42:56;;;;;;;4.50;2.67;;;9.90;99.90;;;;;;5104865;28;20024;-71
2023/12/31 05:45:21;;;;;;;5.03;3.00;;;9.90;99.90;;;;;;5094660;28;20028;-71
2023/12/31 05:47:47;;;;;;;3.22;2.33;;;9.90;99.90;;;;;;5098562;28;20104;-71
2023/12/31 05:50:16;;;;;;;2.67;2.33;;;10.00;99.90;;;;;;5114642;28;20023;-71
2023/12/31 05:52:42;;;;;;;2.80;2.50;;;9.90;99.90;;;;;;5113222;28;20042;-71
2023/12/31 05:55:08;;;;;;;6.10;2.83;;;9.90;99.90;;;;;;5114952;28;20027;-71
2023/12/31 05:57:34;;;;;;;4.53;2.53;;;10.00;99.90;;;;;;5112903;28;20030;-72
2023/12/31 06:00:00;;;;;;;5.63;2.60;;;10.00;99.90;;;;;;5104945;28;20027;-70
2023/12/31 06:02:26;;;;;;;5.03;2.58;;;9.90;99.90;;;;;;5111787;28;20035;-71
2023/12/31 06:04:51;;;;;;;5.20;2.88;;;9.90;99.90;;;;;;5106262;28;20023;-71
2023/12/31 06:07:17;;;;;;;3.70;2.50;;;9.90;99.90;;;;;;5113850;28;20447;-70
2023/12/31 06:09:42;;;;;;;3.45;2.50;;;9.90;99.90;;;;;;5114421;28;20076;-71
2023/12/31 06:12:08;;;;;;;4.85;2.70;;;9.90;99.90;;;;;;5112145;28;20036;-71
2023/12/31 06:14:34;;;;;;;3.70;2.90;;;10.00;99.90;;;;;;5114181;28;20024;-71
2023/12/31 06:16:59;;;;;;;3.33;2.75;;;9.90;99.90;;;;;;5114052;28;20034;-70
2023/12/31 06:19:25;;;;;;;3.83;2.50;;;9.90;99.90;;;;;;5109753;28;20361;-71
2023/12/31 06:21:51;;;;;;;6.22;2.63;;;9.90;99.90;;;;;;5093196;28;20028;-71
2023/12/31 06:24:17;;;;;;;4.60;3.38;;;9.90;99.90;;;;;;5093561;28;20020;-72
2023/12/31 06:26:42;;;;;;;3.10;2.63;;;10.00;99.90;;;;;;5093489;28;20405;-71
2023/12/31 06:29:08;;;;;;;4.50;2.78;;;10.00;99.90;;;;;;5092597;28;20039;-70
2023/12/31 06:31:33;;;;;;;3.53;2.80;;;10.00;99.90;;;;;;5093857;28;20096;-71
2023/12/31 06:33:59;;;;;;;4.32;2.40;;;10.00;99.90;;;;;;5101287;28;20024;-70
2023/12/31 06:36:24;;;;;;;3.38;2.55;;;10.00;99.90;;;;;;5103220;28;20046;-70
2023/12/31 06:38:50;;;;;;;5.25;2.78;;;10.00;99.90;;;;;;5093741;28;20032;-71
2023/12/31 06:41:19;;;;;;;4.15;2.78;;;10.00;99.90;;;;;;5093697;28;20020;-71
2023/12/31 06:43:45;;;;;;;4.00;2.70;;;10.10;99.90;;;;;;5093523;28;20036;-70
2023/12/31 06:46:10;;;;;;;3.90;2.63;;;10.10;99.90;;;;;;5110821;28;20034;-70
2023/12/31 06:48:37;;;;;;;6.95;2.70;;;10.00;99.90;;;;;;5098493;28;20047;-70
2023/12/31 06:51:03;;;;;;;3.60;3.00;;;10.10;99.90;;;;;;5109719;28;20311;-70
2023/12/31 06:53:29;;;;;;;6.38;2.88;;;10.10;99.90;;;;;;5113644;28;20114;-71
2023/12/31 06:55:54;;;;;;;4.57;2.80;;;10.10;99.90;;;;;;5113680;28;20024;-70
2023/12/31 06:58:20;;;;;;;3.75;2.90;;;10.10;99.90;;;;;;5113733;28;20036;-70
2023/12/31 07:00:46;;;;;;;3.65;2.78;;;10.10;99.90;;;;;;5112920;28;20032;-71
2023/12/31 07:03:11;;;;;;;4.47;2.30;;;10.10;99.90;;;;;;5111178;28;20048;-71
2023/12/31 07:05:37;;;;;;;5.03;2.80;;;10.10;99.90;;;;;;5111339;28;20023;-71
2023/12/31 07:08:03;;;;;;;3.92;2.83;;;10.10;99.90;;;;;;5110569;28;20027;-71
2023/12/31 07:10:28;;;;;;;5.63;3.30;;;10.10;99.90;;;;;;5113576;28;20114;-70
2023/12/31 07:12:54;;;;;;;4.65;3.10;;;10.10;99.90;;;;;;5111105;28;20397;-70
2023/12/31 07:15:19;;;;;;;3.53;3.13;;;10.20;99.90;;;;;;5100423;28;20032;-70
2023/12/31 07:17:45;;;;;;;3.63;2.80;;;10.20;99.90;;;;;;5092289;28;20028;-71
2023/12/31 07:20:11;;;;;;;5.13;2.88;;;10.20;99.90;;;;;;5092775;28;20134;-72
2023/12/31 07:22:38;;;;;;;2.85;2.55;;;10.20;99.90;;;;;;5092900;28;20110;-71
2023/12/31 07:25:04;;;;;;;6.13;3.15;;;10.20;99.90;;;;;;5099543;28;20028;-71
2023/12/31 07:27:30;;;;;;;4.78;3.40;;;10.20;99.90;;;;;;5112954;28;20027;-71
2023/12/31 07:29:56;;;;;;;4.95;3.38;;;10.20;99.90;;;;;;5097941;28;20032;-71
2023/12/31 07:32:22;;;;;;;4.60;3.60;;;10.10;99.90;;;;;;5095692;28;20031;-72
2023/12/31 07:34:47;;;;;;;4.80;3.85;;;10.00;99.90;;;;;;5112691;28;20027;-72
2023/12/31 07:37:13;;;;;;;4.63;3.70;;;9.80;99.90;;;;;;5111088;28;20046;-73
2023/12/31 07:39:41;;;;;;;4.45;3.95;;;9.70;99.90;;;;;;5111700;28;20053;-73
2023/12/31 07:42:07;;;;;;;6.55;3.75;;;9.70;99.90;;;;;;5108878;28;20465;-73
2023/12/31 07:44:32;;;;;;;7.32;4.53;;;9.60;99.90;;;;;;5108240;28;20015;-73
2023/12/31 07:46:59;;;;;;;4.90;3.92;;;9.50;99.90;;;;;;5106167;28;20038;-73
2023/12/31 07:49:24;;;;;;;6.78;4.43;;;9.50;99.90;;;;;;5111556;28;20028;-73
2023/12/31 07:51:50;;;;;;;6.55;3.95;;;9.40;99.90;;;;;;5111400;28;20385;-73
2023/12/31 07:54:16;;;;;;;9.85;3.95;;;9.40;99.90;;;;;;5111592;28;20024;-72
2023/12/31 07:56:42;;;;;;;7.00;4.40;;;9.40;99.90;;;;;;5112983;28;20038;-73
2023/12/31 07:59:08;;;;;;;6.78;4.15;;;9.30;99.90;;;;;;5116244;28;20023;-74
2023/12/31 08:01:34;;;;;;;7.53;5.63;;;9.30;99.90;;;;;;5117092;28;20030;-73
2023/12/31 08:03:59;;;;;;;5.45;3.90;;;9.30;99.90;;;;;;5115398;28;20044;-73
2023/12/31 08:06:26;;;;;;;5.05;3.78;;;9.30;99.90;;;;;;5113795;28;20031;-73
2023/12/31 08:08:52;;;;;;;6.45;4.10;;;9.30;99.90;;;;;;5115707;28;20058;-73
2023/12/31 08:11:20;;;;;;;8.05;3.95;;;9.30;99.90;;;;;;5115457;28;20024;-73
2023/12/31 08:13:46;;;;;;;6.95;4.47;;;9.30;99.90;;;;;;5078415;28;20056;-73
2023/12/31 08:16:11;;;;;;;5.43;3.85;;;9.30;99.90;;;;;;5095003;28;20426;-74
2023/12/31 08:18:38;;;;;;;4.78;4.03;;;9.30;99.90;;;;;;5098141;28;20059;-73
2023/12/31 08:21:03;;;;;;;5.15;3.80;;;9.30;99.90;;;;;;5106425;28;20306;-73
2023/12/31 08:23:29;;;;;;;4.28;3.78;;;9.30;99.90;;;;;;5113425;28;20085;-73
2023/12/31 08:25:55;;;;;;;6.00;4.43;;;9.30;99.90;;;;;;5096456;28;20114;-73
2023/12/31 08:28:22;;;;;;;6.60;4.13;;;9.30;99.90;;;;;;5115126;28;20150;-73
2023/12/31 08:30:48;;;;;;;6.55;3.90;;;9.30;99.90;;;;;;5111278;28;20028;-74
2023/12/31 08:33:14;;;;;;;7.93;4.00;;;9.30;99.90;;;;;;5109210;28;20479;-74
2023/12/31 08:35:40;;;;;;;6.65;4.10;;;9.30;99.90;;;;;;5111709;28;20032;-72
2023/12/31 08:38:06;;;;;;;6.30;3.75;;;9.30;99.90;;;;;;5106978;28;20036;-73
2023/12/31 08:40:31;;;;;;;5.57;3.97;;;9.20;99.90;;;;;;5095159;28;20072;-74
2023/12/31 08:42:57;;;;;;;6.35;4.20;;;9.20;99.90;;;;;;5110737;28;20072;-73
2023/12/31 08:45:23;;;;;;;5.28;4.05;;;9.20;99.90;;;;;;5114129;28;20057;-72
2023/12/31 08:47:49;;;;;;;9.68;3.60;;;9.20;99.90;;;;;;5114307;28;20453;-72
2023/12/31 08:50:15;;;;;;;3.60;3.08;;;9.20;99.90;;;;;;5114607;28;20043;-74
2023/12/31 08:52:43;;;;;;;5.72;3.28;;;9.20;99.90;;;;;;5114543;28;20514;-73
2023/12/31 08:55:09;;;;;;;4.72;3.38;;;9.20;99.90;;;;;;5111991;28;20034;-74
2023/12/31 08:57:37;;;;;;;4.63;3.17;;;9.10;99.90;;;;;;5107035;28;20031;-73
2023/12/31 09:00:03;;;;;;;4.95;3.25;;;9.10;99.90;;;;;;5112499;28;20381;-73
2023/12/31 09:02:29;;;;;;;4.85;2.78;;;9.10;99.90;;;;;;5075145;28;1092860;-73
2023/12/31 09:04:55;;;;;;;6.68;2.80;;;9.10;99.90;;;;;;5114861;28;20050;-73
2023/12/31 09:07:20;;;;;;;4.00;2.60;;;9.00;99.90;;;;;;5113426;28;20042;-73
2023/12/31 09:09:46;;;;;;;4.72;2.88;;;9.00;99.90;;;;;;5114725;28;20526;-73
2023/12/31 09:12:11;;;;;;;3.60;2.08;;;9.00;99.90;;;;;;5102865;28;20028;-73
2023/12/31 09:14:37;;;;;;;6.60;2.60;;;8.90;99.90;;;;;;5104460;28;20456;-73
2023/12/31 09:17:02;;;;;;;5.93;2.50;;;8.90;99.90;;;;;;5095059;28;20024;-73
2023/12/31 09:19:28;;;;;;;4.30;2.58;;;8.80;99.90;;;;;;5101666;28;20038;-74
2023/12/31 09:21:53;;;;;;;5.93;2.78;;;8.80;99.90;;;;;;5114373;28;20050;-74
2023/12/31 09:24:19;;;;;;;3.28;2.35;;;8.70;99.90;;;;;;5113221;28;20024;-73
2023/12/31 09:26:47;;;;;;;7.13;2.30;;;8.70;99.90;;;;;;5111833;28;20032;-74
2023/12/31 09:29:14;;;;;;;6.43;3.00;;;8.70;99.90;;;;;;5094396;28;20063;-73
2023/12/31 09:31:39;;;;;;;7.95;2.80;;;8.60;99.90;;;;;;5093618;28;20024;-74
2023/12/31 09:34:05;;;;;;;6.93;3.30;;;8.60;99.90;;;;;;5093720;28;20041;-73
2023/12/31 09:36:32;;;;;;;5.75;2.85;;;8.60;99.90;;;;;;5103239;28;20371;-74
2023/12/31 09:38:57;;;;;;;7.00;3.20;;;8.70;99.90;;;;;;5094261;28;20032;-74
2023/12/31 09:41:24;;;;;;;7.85;2.90;;;8.60;99.90;;;;;;5100671;28;20065;-73
2023/12/31 09:43:52;;;;;;;11.63;3.53;;;8.60;99.90;;;;;;5107655;28;20020;-72
2023/12/31 09:46:20;;;;;;;7.60;2.63;;;8.60;99.90;;;;;;5109483;28;20035;-72
2023/12/31 09:48:50;;;;;;;7.28;2.72;;;8.60;99.90;;;;;;5114346;28;20434;-73
2023/12/31 09:51:19;;;;;;;5.40;2.22;;;8.60;99.90;;;;;;5114463;28;20035;-74
2023/12/31 09:53:50;;;;;;;6.30;2.72;;;8.60;99.90;;;;;;5113982;28;20024;-73
2023/12/31 09:56:17;;;;;;;4.45;2.33;;;8.70;99.90;;;;;;5114102;28;20392;-73
2023/12/31 09:58:55;;;;;;;5.88;2.33;;;8.70;99.90;;;;;;5114127;28;20016;-74
2023/12/31 10:01:24;;;;;;;8.45;2.63;;;8.80;99.90;;;;;;5113409;28;20024;-74
2023/12/31 10:03:52;;;;;;;5.15;2.05;;;8.80;99.90;;;;;;5106530;28;20044;-73
2023/12/31 10:06:40;;;;;;;5.20;2.10;;;9.00;99.90;;;;;;5076054;28;20126;-74
2023/12/31 10:09:23;;;;;;;8.20;2.20;;;9.00;99.90;;;;;;5106199;28;20049;-73
2023/12/31 10:12:01;;;;;;;7.25;2.30;;;9.30;99.90;;;;;;5058704;28;20123;-73
2023/12/31 10:14:31;;;;;;;4.25;1.83;;;9.40;99.90;;;;;;5092878;28;20024;-73
2023/12/31 10:16:59;;;;;;;4.50;2.13;;;9.50;99.90;;;;;;5057293;28;20075;-72
2023/12/31 10:19:35;;;;;;;5.07;1.77;;;9.60;99.90;;;;;;5074441;28;20040;-73
2023/12/31 10:22:11;;;;;;;4.57;1.98;;;9.70;99.90;;;;;;5074119;28;20032;-73
2023/12/31 10:25:04;;;;;;;3.50;1.95;;;9.80;99.90;;;;;;5089106;28;20044;-72
2023/12/31 10:27:43;;;;;;;5.10;2.20;;;9.80;99.90;;;;;;5105484;28;20031;-72
2023/12/31 10:30:22;;;;;;;6.53;2.10;;;9.90;99.90;;;;;;5095654;28;20461;-71
2023/12/31 10:33:15;;;;;;;4.75;2.00;;;10.00;99.90;;;;;;5095419;28;20053;-72
2023/12/31 10:36:09;;;;;;;3.10;1.60;;;10.10;99.90;;;;;;5073082;28;20094;-72
2023/12/31 10:38:53;;;;;;;3.25;1.50;;;10.10;99.90;;;;;;5089230;28;20139;-72
2023/12/31 10:41:28;;;;;;;4.97;1.70;;;10.10;99.90;;;;;;5093172;28;20031;-71
2023/12/31 10:44:11;;;;;;;2.45;1.50;;;10.10;99.90;;;;;;5057156;28;20041;-72
2023/12/31 10:46:48;;;;;;;2.95;1.63;;;10.20;99.90;;;;;;5107713;27;20030;-73
2023/12/31 10:49:32;;;;;;;2.53;1.40;;;10.20;99.90;;;;;;5094224;28;20040;-71
2023/12/31 10:52:14;;;;;;;1.85;1.38;;;10.20;99.90;;;;;;5092555;28;20028;-71
2023/12/31 10:54:56;;;;;;;2.83;1.40;;;10.20;99.90;;;;;;5090403;28;20097;-72
2023/12/31 10:57:29;;;;;;;3.35;1.73;;;10.10;99.90;;;;;;5074869;28;20058;-72
2023/12/31 11:00:00;;;;;;;2.13;1.60;;;10.00;99.90;;;;;;5108614;28;20055;-72
2023/12/31 11:02:32;;;;;;;3.17;1.52;;;10.00;99.90;;;;;;5040752;28;20031;-72
2023/12/31 11:05:12;;;;;;;3.72;1.80;;;10.00;99.90;;;;;;5081251;28;20380;-71
2023/12/31 11:07:46;;;;;;;4.30;2.00;;;9.90;99.90;;;;;;5112886;28;20043;-72
2023/12/31 11:10:17;;;;;;;1.33;1.20;;;9.90;99.90;;;;;;5057731;28;20491;-74
2023/12/31 11:12:52;;;;;;;0.98;0.98;;;9.80;99.90;;;;;;5073582;28;20138;-73
2023/12/31 11:15:24;;;;;;;4.15;1.23;;;9.50;99.90;;;;;;5073340;28;20036;-72
2023/12/31 11:17:59;;;;;;;5.40;1.80;;;9.20;99.90;;;;;;5074609;28;20024;-73
2023/12/31 11:21:02;;;;;;;5.38;1.83;;;9.00;99.90;;;;;;5077244;28;20492;-73
2023/12/31 11:23:53;;;;;;;3.95;1.90;;;8.70;99.90;;;;;;5093970;28;20028;-72
2023/12/31 11:26:31;;;;;;;7.88;2.08;;;8.50;99.90;;;;;;5110791;28;20083;-72
2023/12/31 11:29:16;;;;;;;5.32;1.63;;;8.40;99.90;;;;;;5094288;28;20043;-73
2023/12/31 11:31:44;;;;;;;5.30;1.65;;;8.30;99.90;;;;;;5111644;28;20036;-72
2023/12/31 11:34:24;;;;;;;4.30;1.63;;;8.30;99.90;;;;;;5076174;28;20032;-73
2023/12/31 11:37:08;;;;;;;4.82;1.80;;;8.30;99.90;;;;;;5111061;28;20077;-73
2023/12/31 11:40:01;;;;;;;6.20;1.50;;;8.30;99.90;;;;;;5106386;28;20449;-72
2023/12/31 11:42:31;;;;;;;4.35;1.50;;;8.40;99.90;;;;;;5093779;28;20051;-73
2023/12/31 11:45:03;;;;;;;5.55;2.00;;;8.50;99.90;;;;;;5110766;28;20023;-72
2023/12/31 11:47:38;;;;;;;4.68;1.88;;;8.70;99.90;;;;;;5060945;28;20455;-73
2023/12/31 11:50:37;;;;;;;3.88;1.65;;;8.70;99.90;;;;;;5061058;28;20369;-72
2023/12/31 11:53:15;;;;;;;2.75;1.80;;;8.70;99.90;;;;;;5064826;28;20042;-73
2023/12/31 11:55:59;;;;;;;4.72;2.05;;;8.80;99.90;;;;;;5075533;28;20072;-73
2023/12/31 11:58:37;;;;;;;5.95;2.20;;;8.80;99.90;;;;;;5077910;28;20019;-73
2023/12/31 12:01:10;;;;;;;2.42;1.58;;;8.80;99.90;;;;;;5110213;28;20039;-72
2023/12/31 12:03:49;;;;;;;4.80;1.60;;;8.80;99.90;;;;;;5087075;28;20132;-72
2023/12/31 12:06:19;;;;;;;4.63;1.65;;;8.80;99.90;;;;;;5052752;28;20028;-72
2023/12/31 12:08:52;;;;;;;7.15;2.33;;;8.80;99.90;;;;;;5071767;28;20517;-72
2023/12/31 12:11:45;;;;;;;7.03;2.22;;;8.80;99.90;;;;;;5087916;28;20063;-72
2023/12/31 12:14:17;;;;;;;4.82;2.22;;;8.80;99.90;;;;;;5078447;28;20024;-72
2023/12/31 12:16:51;;;;;;;;;;;8.90;99.90;;;;;;5085098;28;20513;-72
2023/12/31 12:19:28;;;;;;;11.38;3.80;;;8.90;99.90;;;;;;5090459;28;20385;-73
2023/12/31 12:22:09;;;;;;;12.07;3.22;;;8.90;99.90;;;;;;5086615;28;20499;-73
2023/12/31 12:24:50;;;;;;;8.82;2.60;;;8.90;99.90;;;;;;5078518;28;20032;-74
2023/12/31 12:27:26;;;;;;;11.50;2.87;;;9.10;99.90;;;;;;5089684;28;20051;-73
2023/12/31 12:30:10;;;;;;;10.43;2.90;;;9.40;99.90;;;;;;5089707;28;20035;-73
2023/12/31 12:32:47;;;;;;;11.07;2.65;;;9.60;99.90;;;;;;5087938;28;20050;-73
2023/12/31 12:35:21;;;;;;;12.95;3.65;;;9.80;99.90;;;;;;5087969;28;20032;-72
2023/12/31 12:38:05;;;;;;;10.43;3.22;;;10.00;99.90;;;;;;5089573;28;20378;-71
2023/12/31 12:40:46;;;;;;;8.13;2.67;;;10.10;99.90;;;;;;5080477;28;20115;-71
2023/12/31 12:43:34;;;;;;;11.65;2.53;;;10.20;99.90;;;;;;5094179;28;20048;-72
2023/12/31 12:46:14;;;;;;;11.27;2.85;;;10.20;99.90;;;;;;5091730;28;20040;-72
2023/12/31 12:48:59;;;;;;;10.95;2.72;;;10.10;99.90;;;;;;5085253;28;20070;-72
2023/12/31 12:51:50;;;;;;;13.52;2.72;;;10.00;99.90;;;;;;5087987;28;20032;-73
2023/12/31 12:54:34;;;;;;;9.15;3.47;;;10.00;99.90;;;;;;5086203;28;20047;-72
2023/12/31 12:57:07;;;;;;;10.15;2.92;;;10.00;99.90;;;;;;5089646;28;20025;-72
2023/12/31 12:59:32;;;;;;;7.80;2.60;;;9.90;99.90;;;;;;5087952;28;20032;-72
2023/12/31 13:02:00;;;;;;;19.25;3.05;;;9.90;99.90;;;;;;5092313;28;20043;-72